Terminal Aerodrome Forecast
Issued by NWS Knoxville/Tri Cities, TN

Home | Current Version | Previous Version | Text Only | Print | Product List | Glossary On
Versions: 1 2 3 4 5 6 7 8 9 10 11 12 13 14 15 16 17 18 19 20 21 22 23 24 25 26 27 28 29 30 31
000
FTUS44 KMRX 191120
TAFTRI
TAF
KTRI 191120Z 1912/2012 08005KT P6SM BKN050
     FM191400 12007KT 6SM -SHRA OVC050
     FM191600 15010G20KT 3SM SHRA VCTS OVC050CB
      TEMPO 1919/1923 2SM TSRA OVC025CB
     FM192300 20010KT P6SM VCTS BKN035CB
     FM200600 23005KT P6SM BKN015=

USA.gov is the U.S. government's official web portal to all federal, state and local government web resources and services.